createdAt,value
2017-08-14T00:02:21.179Z,12.80
2017-08-14T00:04:48.882Z,12.80
2017-08-14T00:07:16.497Z,12.80
2017-08-14T00:09:44.869Z,12.80
2017-08-14T00:12:13.252Z,12.70
2017-08-14T00:14:41.610Z,12.70
2017-08-14T00:17:09.220Z,12.70
2017-08-14T00:19:36.893Z,12.80
2017-08-14T00:22:04.484Z,12.70
2017-08-14T00:24:32.085Z,12.80
2017-08-14T00:26:59.768Z,12.70
2017-08-14T00:29:27.417Z,12.70
2017-08-14T00:31:54.992Z,12.60
2017-08-14T00:34:22.803Z,12.60
2017-08-14T00:36:50.412Z,12.50
2017-08-14T00:39:18.014Z,12.50
2017-08-14T00:41:45.685Z,12.40
2017-08-14T00:44:14.144Z,12.40
2017-08-14T00:46:41.744Z,12.40
2017-08-14T00:49:09.917Z,12.40
2017-08-14T00:51:37.562Z,12.40
2017-08-14T00:54:05.229Z,12.30
2017-08-14T00:56:32.866Z,12.20
2017-08-14T00:59:00.561Z,12.20
2017-08-14T01:01:28.197Z,12.20
2017-08-14T01:03:55.827Z,12.10
2017-08-14T01:06:23.421Z,12.10
2017-08-14T01:08:51.838Z,12.20
2017-08-14T01:11:19.535Z,12.20
2017-08-14T01:13:47.124Z,12.20
2017-08-14T01:16:15.478Z,12.20
2017-08-14T01:18:43.126Z,12.10
2017-08-14T01:21:10.754Z,12.20
2017-08-14T01:23:38.373Z,12.10
2017-08-14T01:26:05.978Z,12.00
2017-08-14T01:28:33.570Z,12.00
2017-08-14T01:31:01.147Z,12.00
2017-08-14T01:33:28.810Z,12.00
2017-08-14T01:35:56.389Z,12.10
2017-08-14T01:38:23.963Z,12.00
2017-08-14T01:40:51.670Z,12.00
2017-08-14T01:43:19.324Z,12.00
2017-08-14T01:45:46.897Z,12.00
2017-08-14T01:48:14.503Z,12.00
2017-08-14T01:50:42.136Z,12.00
2017-08-14T01:53:10.490Z,11.80
2017-08-14T01:55:38.097Z,11.80
2017-08-14T01:58:05.744Z,11.60
2017-08-14T02:00:33.316Z,11.60
2017-08-14T02:03:00.911Z,11.70
2017-08-14T02:05:28.513Z,11.70
2017-08-14T02:07:56.915Z,11.70
2017-08-14T02:10:24.507Z,11.70
2017-08-14T02:12:52.097Z,11.70
2017-08-14T02:15:19.708Z,11.70
2017-08-14T02:17:47.331Z,11.70
2017-08-14T02:20:15.695Z,11.70
2017-08-14T02:22:43.322Z,11.60
2017-08-14T02:25:11.445Z,11.60
2017-08-14T02:27:39.099Z,11.50
2017-08-14T02:30:06.689Z,11.50
2017-08-14T02:32:34.318Z,11.50
2017-08-14T02:35:02.712Z,11.40
2017-08-14T02:37:30.284Z,11.40
2017-08-14T02:39:57.967Z,11.40
2017-08-14T02:42:25.576Z,11.40
2017-08-14T02:44:53.932Z,11.40
2017-08-14T02:47:21.536Z,11.40
2017-08-14T02:49:49.161Z,11.40
2017-08-14T02:52:16.856Z,11.40
2017-08-14T02:54:44.490Z,11.40
2017-08-14T02:57:12.855Z,11.40
2017-08-14T02:59:40.423Z,11.40
2017-08-14T03:02:08.042Z,11.40
2017-08-14T03:04:35.651Z,11.50
2017-08-14T03:07:04.062Z,11.40
2017-08-14T03:09:31.732Z,11.40
2017-08-14T03:11:59.299Z,11.40
2017-08-14T03:14:26.886Z,11.40
2017-08-14T03:16:54.973Z,11.40
2017-08-14T03:19:22.582Z,11.40
2017-08-14T03:21:50.163Z,11.40
2017-08-14T03:24:18.063Z,11.40
2017-08-14T03:26:46.429Z,11.30
2017-08-14T03:29:14.034Z,11.30
2017-08-14T03:31:41.696Z,11.30
2017-08-14T03:34:09.302Z,11.30
2017-08-14T03:36:36.885Z,11.30
2017-08-14T03:39:05.331Z,11.30
2017-08-14T03:41:32.973Z,11.20
2017-08-14T03:44:00.537Z,11.30
2017-08-14T03:46:28.145Z,11.30
2017-08-14T03:48:56.483Z,11.10
2017-08-14T03:51:24.142Z,11.00
2017-08-14T03:53:51.769Z,11.00
2017-08-14T03:56:19.385Z,11.00
2017-08-14T03:58:47.012Z,11.00
2017-08-14T04:01:14.721Z,11.00
2017-08-14T04:03:42.307Z,11.00
2017-08-14T04:06:09.907Z,11.10
2017-08-14T04:08:37.601Z,11.00
2017-08-14T04:11:05.949Z,11.00
2017-08-14T04:13:33.601Z,11.00
2017-08-14T04:16:01.374Z,11.00
2017-08-14T04:18:29.052Z,11.00
2017-08-14T04:20:56.614Z,11.00
2017-08-14T04:23:24.564Z,11.00
2017-08-14T04:25:52.147Z,11.00
2017-08-14T04:28:19.837Z,11.00
2017-08-14T04:30:47.448Z,11.00
2017-08-14T04:33:15.175Z,11.00
2017-08-14T04:35:43.103Z,11.00
2017-08-14T04:38:10.788Z,11.10
2017-08-14T04:40:38.370Z,11.00
2017-08-14T04:43:06.040Z,11.10
2017-08-14T04:45:33.678Z,11.10
2017-08-14T04:48:01.275Z,11.20
2017-08-14T04:50:28.894Z,11.30
2017-08-14T04:52:56.624Z,11.20
2017-08-14T04:55:24.232Z,11.30
2017-08-14T04:57:51.899Z,11.40
2017-08-14T05:00:19.548Z,11.50
2017-08-14T05:02:47.115Z,11.60
2017-08-14T05:05:14.723Z,11.70
2017-08-14T05:07:42.329Z,11.90
2017-08-14T05:10:09.907Z,12.10
2017-08-14T05:12:37.513Z,12.20
2017-08-14T05:15:05.115Z,12.30
2017-08-14T05:17:32.722Z,12.30
2017-08-14T05:20:01.142Z,12.50
2017-08-14T05:22:28.795Z,12.50
2017-08-14T05:24:56.405Z,12.60
2017-08-14T05:27:24.742Z,12.90
2017-08-14T05:29:52.474Z,12.80
2017-08-14T05:32:20.063Z,13.00
2017-08-14T05:34:47.718Z,13.10
2017-08-14T05:37:15.362Z,13.30
2017-08-14T05:39:43.057Z,13.40
2017-08-14T05:42:10.637Z,13.50
2017-08-14T05:44:38.235Z,13.60
2017-08-14T05:47:05.927Z,13.90
2017-08-14T05:49:33.494Z,14.00
2017-08-14T05:52:01.128Z,13.90
2017-08-14T05:54:28.720Z,14.10
2017-08-14T05:56:56.515Z,14.40
2017-08-14T05:59:24.182Z,14.60
2017-08-14T06:01:51.799Z,14.90
2017-08-14T06:04:19.379Z,15.20
2017-08-14T06:06:47.037Z,15.60
2017-08-14T06:09:14.675Z,15.60
2017-08-14T06:11:42.259Z,16.10
2017-08-14T06:14:10.671Z,16.50
2017-08-14T06:16:38.349Z,16.50
2017-08-14T06:19:05.986Z,16.60
2017-08-14T06:21:33.600Z,16.40
2017-08-14T06:24:01.191Z,16.80
2017-08-14T06:26:29.561Z,17.40
2017-08-14T06:28:58.120Z,18.10
2017-08-14T06:31:25.732Z,18.20
2017-08-14T06:33:53.331Z,18.20
2017-08-14T06:36:20.948Z,18.00
2017-08-14T06:38:48.564Z,18.30
2017-08-14T06:41:16.142Z,18.20
2017-08-14T06:43:43.769Z,18.80
2017-08-14T06:46:11.379Z,19.30
2017-08-14T06:48:39.019Z,19.30
2017-08-14T06:51:06.621Z,19.20
2017-08-14T06:53:34.285Z,19.50
2017-08-14T06:56:01.879Z,19.80
2017-08-14T06:58:29.506Z,19.80
2017-08-14T07:00:57.143Z,20.10
2017-08-14T07:03:24.744Z,19.90
2017-08-14T07:05:52.378Z,20.30
2017-08-14T07:08:19.960Z,19.70
2017-08-14T07:10:47.722Z,20.70
2017-08-14T07:13:15.338Z,21.70
2017-08-14T07:15:43.692Z,21.00
2017-08-14T07:18:11.309Z,21.00
2017-08-14T07:20:38.959Z,19.50
2017-08-14T07:23:06.626Z,19.10
2017-08-14T07:25:34.204Z,18.70
2017-08-14T07:28:02.095Z,18.40
2017-08-14T07:30:29.706Z,18.40
2017-08-14T07:32:57.302Z,18.60
2017-08-14T07:35:25.108Z,18.70
2017-08-14T07:37:53.565Z,18.70
2017-08-14T07:40:21.166Z,18.70
2017-08-14T07:42:48.812Z,18.50
2017-08-14T07:45:16.443Z,18.40
2017-08-14T07:47:44.045Z,19.00
2017-08-14T07:50:11.729Z,19.20
2017-08-14T07:52:39.375Z,19.20
2017-08-14T07:55:09.137Z,19.50
2017-08-14T07:57:36.793Z,19.40
2017-08-14T08:00:04.396Z,19.60
2017-08-14T08:02:32.048Z,19.30
2017-08-14T08:04:59.717Z,19.20
2017-08-14T08:07:27.429Z,19.20
2017-08-14T08:09:55.087Z,19.90
2017-08-14T08:12:22.781Z,19.80
2017-08-14T08:14:51.126Z,19.70
2017-08-14T08:17:18.703Z,19.80
2017-08-14T08:19:47.191Z,19.90
2017-08-14T08:22:15.645Z,20.10
2017-08-14T08:24:47.303Z,20.10
2017-08-14T08:27:14.990Z,20.10
2017-08-14T08:29:42.688Z,20.20
2017-08-14T08:32:11.279Z,20.30
2017-08-14T08:34:39.589Z,21.10
2017-08-14T08:37:23.273Z,23.90
2017-08-14T08:39:51.877Z,28.80
2017-08-14T08:42:19.502Z,28.70
2017-08-14T08:44:50.280Z,30.10
2017-08-14T08:47:20.509Z,27.30
2017-08-14T08:49:50.426Z,26.40
2017-08-14T08:52:18.103Z,26.40
2017-08-14T08:54:53.411Z,26.00
2017-08-14T08:57:25.599Z,25.90
2017-08-14T09:00:07.506Z,25.90
2017-08-14T09:02:40.283Z,24.80
2017-08-14T09:05:08.123Z,25.30
2017-08-14T09:07:35.966Z,26.20
2017-08-14T09:10:03.617Z,26.50
2017-08-14T09:12:32.374Z,26.80
2017-08-14T09:15:02.555Z,27.10
2017-08-14T09:17:30.905Z,29.20
2017-08-14T09:19:58.798Z,28.80
2017-08-14T09:22:26.617Z,28.40
2017-08-14T09:24:54.243Z,28.30
2017-08-14T09:27:21.969Z,30.50
2017-08-14T09:29:49.951Z,32.30
2017-08-14T09:32:17.712Z,31.50
2017-08-14T09:34:45.447Z,31.60
2017-08-14T09:37:13.757Z,30.40
2017-08-14T09:39:41.397Z,32.10
2017-08-14T09:42:09.047Z,31.60
2017-08-14T09:44:36.713Z,32.10
2017-08-14T09:47:04.376Z,32.20
2017-08-14T09:49:32.991Z,29.40
2017-08-14T09:52:00.565Z,30.80
2017-08-14T09:54:28.169Z,30.20
2017-08-14T09:56:55.777Z,31.20
2017-08-14T09:59:23.651Z,32.20
2017-08-14T10:01:51.332Z,32.00
2017-08-14T10:04:19.309Z,33.10
2017-08-14T10:06:46.909Z,33.00
2017-08-14T10:09:14.483Z,32.60
2017-08-14T10:11:42.223Z,31.40
2017-08-14T10:14:09.799Z,31.80
2017-08-14T10:16:37.371Z,30.90
2017-08-14T10:19:04.989Z,31.50
2017-08-14T10:21:32.620Z,32.10
2017-08-14T10:24:00.204Z,31.30
2017-08-14T10:26:27.842Z,31.70
2017-08-14T10:28:55.412Z,31.70
2017-08-14T10:31:22.992Z,31.70
2017-08-14T10:33:50.762Z,32.60
2017-08-14T10:36:18.374Z,31.80
2017-08-14T10:38:45.970Z,31.80
2017-08-14T10:41:13.585Z,32.00
2017-08-14T10:43:42.134Z,31.70
2017-08-14T10:46:09.720Z,31.70
2017-08-14T10:48:38.131Z,32.60
2017-08-14T10:51:05.793Z,32.60
2017-08-14T10:53:33.456Z,33.10
2017-08-14T10:56:01.202Z,34.00
2017-08-14T10:58:29.586Z,32.10
2017-08-14T11:00:57.215Z,32.00
2017-08-14T11:03:24.847Z,32.30
2017-08-14T11:05:52.440Z,32.50
2017-08-14T11:08:20.861Z,31.90
2017-08-14T11:10:48.566Z,31.80
2017-08-14T11:13:16.271Z,32.20
2017-08-14T11:15:55.320Z,32.90
2017-08-14T11:18:28.412Z,29.40
2017-08-14T11:23:36.148Z,26.60
2017-08-14T11:26:03.827Z,26.60
2017-08-14T11:28:31.629Z,26.30
2017-08-14T11:30:59.204Z,26.80
2017-08-14T11:33:26.810Z,27.40
2017-08-14T11:35:54.571Z,28.30
2017-08-14T11:38:22.153Z,28.70
2017-08-14T11:40:50.573Z,28.30
2017-08-14T11:43:19.509Z,28.30
2017-08-14T11:45:47.254Z,27.60
2017-08-14T11:48:14.949Z,27.30
2017-08-14T11:50:42.554Z,27.50
2017-08-14T11:53:10.402Z,27.90
2017-08-14T11:55:38.008Z,27.80
2017-08-14T11:58:05.600Z,27.80
2017-08-14T12:00:33.222Z,27.50
2017-08-14T12:03:00.875Z,27.20
2017-08-14T12:05:28.466Z,26.80
2017-08-14T12:07:56.851Z,27.30
2017-08-14T12:10:24.505Z,27.30
2017-08-14T12:12:52.889Z,27.50
2017-08-14T12:15:21.233Z,27.30
2017-08-14T12:17:49.637Z,27.00
2017-08-14T12:20:18.063Z,28.10
2017-08-14T12:22:45.660Z,28.10
2017-08-14T12:25:13.278Z,27.60
2017-08-14T12:27:40.902Z,27.70
2017-08-14T12:30:08.568Z,27.30
2017-08-14T12:32:36.184Z,27.80
2017-08-14T12:35:03.763Z,27.70
2017-08-14T12:37:31.419Z,27.80
2017-08-14T12:39:59.148Z,27.90
2017-08-14T12:42:26.742Z,27.90
2017-08-14T12:44:54.450Z,27.50
2017-08-14T12:47:22.060Z,27.40
2017-08-14T12:49:50.440Z,26.70
2017-08-14T12:52:18.958Z,26.90
2017-08-14T12:54:46.678Z,26.80
2017-08-14T12:57:14.325Z,26.40
2017-08-14T12:59:41.901Z,26.20
2017-08-14T13:02:09.581Z,26.20
2017-08-14T13:04:37.218Z,26.40
2017-08-14T13:07:04.849Z,26.40
2017-08-14T13:09:32.465Z,26.80
2017-08-14T13:12:00.150Z,27.10
2017-08-14T13:14:27.769Z,26.60
2017-08-14T13:16:55.387Z,26.20
2017-08-14T13:19:22.978Z,26.00
2017-08-14T13:21:50.634Z,25.80
2017-08-14T13:24:18.267Z,25.90
2017-08-14T13:26:45.863Z,25.70
2017-08-14T13:29:13.493Z,26.20
2017-08-14T13:31:41.131Z,26.90
2017-08-14T13:34:08.700Z,26.70
2017-08-14T13:36:36.625Z,27.30
2017-08-14T13:39:04.413Z,28.00
2017-08-14T13:41:32.009Z,28.50
2017-08-14T13:43:59.740Z,27.80
2017-08-14T13:46:27.483Z,26.50
2017-08-14T13:48:56.064Z,25.40
2017-08-14T13:51:23.714Z,25.40
2017-08-14T13:53:52.079Z,25.50
2017-08-14T13:56:19.733Z,25.50
2017-08-14T13:58:47.321Z,25.80
2017-08-14T14:01:14.930Z,26.60
2017-08-14T14:03:42.636Z,26.50
2017-08-14T14:06:11.096Z,25.90
2017-08-14T14:35:07.289Z,27.70
2017-08-14T14:37:45.298Z,27.00
2017-08-14T14:40:23.936Z,26.80
2017-08-14T14:42:51.547Z,26.30
2017-08-14T14:45:19.164Z,26.10
2017-08-14T14:47:46.783Z,25.90
2017-08-14T14:50:14.386Z,25.60
2017-08-14T14:52:42.005Z,25.90
2017-08-14T14:55:09.659Z,25.90
2017-08-14T14:57:37.271Z,26.30
2017-08-14T15:00:11.436Z,26.60
2017-08-14T15:02:42.900Z,26.40
2017-08-14T15:05:10.564Z,26.10
2017-08-14T15:07:38.190Z,25.70
2017-08-14T15:10:05.878Z,25.50
2017-08-14T15:12:33.485Z,25.30
2017-08-14T15:15:01.079Z,25.30
2017-08-14T15:17:28.651Z,25.20
2017-08-14T15:19:56.303Z,25.30
2017-08-14T15:22:23.912Z,25.30
2017-08-14T15:24:51.545Z,25.30
2017-08-14T15:27:19.161Z,25.70
2017-08-14T15:29:46.734Z,26.20
2017-08-14T15:32:14.317Z,26.30
2017-08-14T15:34:42.701Z,26.60
2017-08-14T15:37:11.027Z,26.80
2017-08-14T15:39:38.613Z,26.80
2017-08-14T15:42:06.229Z,26.80
2017-08-14T15:44:33.807Z,26.70
2017-08-14T15:47:01.397Z,27.00
2017-08-14T15:49:29.149Z,26.80
2017-08-14T15:51:56.720Z,26.40
2017-08-14T15:54:24.288Z,26.20
2017-08-14T15:56:51.929Z,26.40
2017-08-14T15:59:42.258Z,26.10
2017-08-14T16:02:10.962Z,26.10
2017-08-14T16:04:38.557Z,26.10
2017-08-14T16:07:06.261Z,26.30
2017-08-14T16:09:33.884Z,26.10
2017-08-14T16:12:02.269Z,26.30
2017-08-14T16:14:29.855Z,26.30
2017-08-14T16:16:58.300Z,26.00
2017-08-14T16:19:37.534Z,26.00
2017-08-14T16:22:05.268Z,26.10
2017-08-14T16:24:32.848Z,26.20
2017-08-14T16:27:00.429Z,26.10
2017-08-14T16:29:28.153Z,26.10
2017-08-14T16:31:56.816Z,26.00
2017-08-14T16:34:24.397Z,26.10
2017-08-14T16:36:53.623Z,25.90
2017-08-14T16:39:21.277Z,26.10
2017-08-14T16:41:48.923Z,26.30
2017-08-14T16:44:16.614Z,26.30
2017-08-14T16:46:44.209Z,25.90
2017-08-14T16:49:11.801Z,25.90
2017-08-14T16:51:39.458Z,25.90
2017-08-14T16:54:07.043Z,25.90
2017-08-14T16:56:34.647Z,25.90
2017-08-14T16:59:02.386Z,25.80
2017-08-14T17:01:30.799Z,25.70
2017-08-14T17:03:58.392Z,25.70
2017-08-14T17:06:26.346Z,25.60
2017-08-14T17:08:54.242Z,25.40
2017-08-14T17:11:21.898Z,25.20
2017-08-14T17:13:49.510Z,25.00
2017-08-14T17:16:17.215Z,24.70
2017-08-14T17:18:45.143Z,24.70
2017-08-14T17:21:12.736Z,24.70
2017-08-14T17:23:40.320Z,24.60
2017-08-14T17:26:08.044Z,24.60
2017-08-14T17:28:35.643Z,24.50
2017-08-14T17:31:03.263Z,24.40
2017-08-14T17:33:30.903Z,24.30
2017-08-14T17:35:58.546Z,24.20
2017-08-14T17:38:26.120Z,24.20
2017-08-14T17:40:53.790Z,24.10
2017-08-14T17:43:21.404Z,24.10
2017-08-14T17:45:49.009Z,24.00
2017-08-14T17:48:16.669Z,23.90
2017-08-14T17:50:45.327Z,24.00
2017-08-14T17:53:13.692Z,23.90
2017-08-14T17:55:42.053Z,23.80
2017-08-14T17:58:09.660Z,23.80
2017-08-14T18:00:37.348Z,23.80
2017-08-14T18:03:04.928Z,23.80
2017-08-14T18:05:36.193Z,23.80
2017-08-14T18:08:04.550Z,23.70
2017-08-14T18:10:32.132Z,23.70
2017-08-14T18:13:00.599Z,23.70
2017-08-14T18:15:29.084Z,23.70
2017-08-14T18:17:56.700Z,23.70
2017-08-14T18:20:24.299Z,23.60
2017-08-14T18:22:51.894Z,23.60
2017-08-14T18:25:19.476Z,23.50
2017-08-14T18:27:48.165Z,23.40
2017-08-14T18:30:15.752Z,23.40
2017-08-14T18:32:43.692Z,23.40
2017-08-14T18:35:12.317Z,23.40
2017-08-14T18:37:39.909Z,23.40
2017-08-14T18:40:07.510Z,23.40
2017-08-14T18:42:35.247Z,23.20
2017-08-14T18:45:02.851Z,23.10
2017-08-14T18:47:30.490Z,23.00
2017-08-14T18:49:59.313Z,22.90
2017-08-14T18:52:27.685Z,22.70
2017-08-14T18:54:55.282Z,22.70
2017-08-14T18:57:22.891Z,22.60
2017-08-14T18:59:50.584Z,22.40
2017-08-14T19:02:18.938Z,22.50
2017-08-14T19:04:46.625Z,22.40
2017-08-14T19:07:14.203Z,22.30
2017-08-14T19:09:43.303Z,22.30
2017-08-14T19:12:09.546Z,22.20
2017-08-14T19:14:37.126Z,22.10
2017-08-14T19:17:08.168Z,22.10
2017-08-14T19:19:35.833Z,22.00
2017-08-14T19:22:03.466Z,22.00
2017-08-14T19:24:31.157Z,22.00
2017-08-14T19:27:02.830Z,22.00
2017-08-14T19:29:38.587Z,21.90
2017-08-14T19:32:10.553Z,21.80
2017-08-14T19:34:38.272Z,21.70
2017-08-14T19:37:06.848Z,21.70
2017-08-14T19:39:34.522Z,22.30
2017-08-14T19:42:03.603Z,23.40
2017-08-14T19:44:41.447Z,23.30
2017-08-14T19:47:09.486Z,23.20
2017-08-14T19:49:37.320Z,23.10
2017-08-14T19:52:10.303Z,22.80
2017-08-14T19:54:37.898Z,22.90
2017-08-14T19:57:05.494Z,23.00
2017-08-14T19:59:33.319Z,22.80
2017-08-14T20:02:00.879Z,23.30
2017-08-14T20:04:28.617Z,23.00
2017-08-14T20:06:56.337Z,23.10
2017-08-14T20:09:24.727Z,23.10
2017-08-14T20:11:52.326Z,23.10
2017-08-14T20:14:20.967Z,22.70
2017-08-14T20:16:48.575Z,23.20
2017-08-14T20:19:16.201Z,22.70
2017-08-14T20:21:43.822Z,21.80
2017-08-14T20:24:11.411Z,21.00
2017-08-14T20:26:39.042Z,20.70
2017-08-14T20:29:07.426Z,20.30
2017-08-14T20:31:35.779Z,20.20
2017-08-14T20:34:03.356Z,20.20
2017-08-14T20:36:31.837Z,20.20
2017-08-14T20:39:00.205Z,19.90
2017-08-14T20:41:27.814Z,19.90
2017-08-14T20:43:55.543Z,20.00
2017-08-14T20:46:23.297Z,20.00
2017-08-14T20:48:50.874Z,19.80
2017-08-14T20:51:18.518Z,19.80
2017-08-14T20:53:52.805Z,19.50
2017-08-14T20:59:04.403Z,19.60
2017-08-14T21:01:32.191Z,19.60
2017-08-14T21:03:59.941Z,19.50
2017-08-14T21:06:27.776Z,19.60
2017-08-14T21:08:55.435Z,19.40
2017-08-14T21:11:23.093Z,19.40
2017-08-14T21:13:50.679Z,19.40
2017-08-14T21:16:39.322Z,19.40
2017-08-14T21:19:14.151Z,19.30
2017-08-14T21:21:52.256Z,19.00
2017-08-14T21:24:30.660Z,18.70
2017-08-14T21:27:01.808Z,18.30
2017-08-14T21:29:29.463Z,18.30
2017-08-14T21:31:57.049Z,18.40
2017-08-14T21:34:24.713Z,18.40
2017-08-14T21:36:52.401Z,18.50
2017-08-14T21:39:20.741Z,18.60
2017-08-14T21:41:48.357Z,18.60
2017-08-14T21:44:15.927Z,18.30
2017-08-14T21:46:43.500Z,18.10
2017-08-14T21:49:11.111Z,17.90
2017-08-14T21:51:38.704Z,17.80
2017-08-14T21:54:06.375Z,17.70
2017-08-14T21:56:42.466Z,17.70
2017-08-14T21:59:10.129Z,17.70
2017-08-14T22:01:38.885Z,17.50
2017-08-14T22:04:12.925Z,17.40
2017-08-14T22:06:40.509Z,17.40
2017-08-14T22:09:08.940Z,17.30
2017-08-14T22:11:58.011Z,17.20
2017-08-14T22:14:25.593Z,17.20
2017-08-14T22:16:53.187Z,17.30
2017-08-14T22:19:20.816Z,17.20
2017-08-14T22:21:48.387Z,17.10
2017-08-14T22:24:16.723Z,17.10
2017-08-14T22:26:44.395Z,17.10
2017-08-14T22:29:12.008Z,17.30
2017-08-14T22:31:39.584Z,17.30
2017-08-14T22:34:07.221Z,17.50
2017-08-14T22:36:34.814Z,17.40
2017-08-14T22:39:02.400Z,17.40
2017-08-14T22:41:30.028Z,17.20
2017-08-14T22:43:59.543Z,17.00
2017-08-14T22:46:27.175Z,16.90
2017-08-14T22:48:54.801Z,16.80
2017-08-14T22:51:23.171Z,16.90
2017-08-14T22:53:51.684Z,16.90
2017-08-14T22:56:19.314Z,17.10
2017-08-14T22:58:46.883Z,17.10
2017-08-14T23:01:15.243Z,16.70
2017-08-14T23:03:42.837Z,16.70
2017-08-14T23:06:10.425Z,16.50
2017-08-14T23:08:37.982Z,16.60
2017-08-14T23:11:05.662Z,16.60
2017-08-14T23:13:33.273Z,16.60
2017-08-14T23:16:00.845Z,16.70
2017-08-14T23:18:28.519Z,16.80
2017-08-14T23:20:56.159Z,16.80
2017-08-14T23:23:23.744Z,16.90
2017-08-14T23:25:52.390Z,16.80
2017-08-14T23:28:20.085Z,16.80
2017-08-14T23:30:47.754Z,16.50
2017-08-14T23:33:15.372Z,16.40
2017-08-14T23:35:43.060Z,16.50
2017-08-14T23:38:10.638Z,16.40
2017-08-14T23:40:38.253Z,16.50
2017-08-14T23:43:06.604Z,16.60
2017-08-14T23:45:34.355Z,16.60
2017-08-14T23:48:02.157Z,16.60
2017-08-14T23:50:31.616Z,16.30
2017-08-14T23:52:59.223Z,16.30
2017-08-14T23:55:26.899Z,16.30
2017-08-14T23:57:54.572Z,16.30
